Time;durP1;ratioP1;P1;durP2;ratioP2;P2;SDS_P1;SDS_P2;PMS_P1;PMS_P2;Temp;Humidity;BMP_temperature;BMP_pressure;BME280_temperature;BME280_humidity;BME280_pressure;Samples;Min_cycle;Max_cycle;Signal;HPM_P1;HPM_P2
2023/04/30 07:27:07;;;;;;;9.75;5.93;;;19.10;99.90;;;;;;5002021;23;20329;-76
2023/04/30 07:29:36;;;;;;;11.38;6.30;;;18.70;99.90;;;;;;4944947;29;20251;-76
2023/04/30 07:32:03;;;;;;;10.63;6.88;;;19.30;99.90;;;;;;4953871;28;20307;-79
2023/04/30 07:34:29;;;;;;;12.95;6.50;;;19.00;99.90;;;;;;4954213;28;20223;-77
2023/04/30 07:36:56;;;;;;;9.10;5.65;;;18.50;99.90;;;;;;4954249;28;20247;-78
2023/04/30 07:39:23;;;;;;;11.82;6.50;;;18.90;99.90;;;;;;4954443;28;20212;-78
2023/04/30 07:41:50;;;;;;;11.35;6.07;;;19.20;99.90;;;;;;4954361;28;20303;-78
2023/04/30 07:44:17;;;;;;;11.15;6.28;;;19.80;99.90;;;;;;4954020;28;20230;-78
2023/04/30 07:46:46;;;;;;;12.15;6.80;;;19.80;99.90;;;;;;4954447;28;20212;-79
2023/04/30 07:49:13;;;;;;;11.00;6.57;;;19.60;99.90;;;;;;4954379;28;20212;-79
2023/04/30 07:51:41;;;;;;;9.27;5.90;;;21.00;99.90;;;;;;4954156;28;20756;-79
2023/04/30 07:54:08;;;;;;;11.55;6.78;;;21.80;99.90;;;;;;4954082;28;20255;-79
2023/04/30 07:56:35;;;;;;;11.80;7.35;;;21.60;99.90;;;;;;4953864;28;20604;-78
2023/04/30 07:59:01;;;;;;;12.70;6.88;;;21.60;99.90;;;;;;4954119;28;20312;-77
2023/04/30 08:01:29;;;;;;;9.85;6.53;;;21.20;99.90;;;;;;4954029;28;20263;-79
2023/04/30 08:03:57;;;;;;;11.45;6.97;;;21.10;99.90;;;;;;4956409;28;20236;-76
2023/04/30 08:06:24;;;;;;;11.75;6.75;;;21.90;99.90;;;;;;4957580;28;20358;-77
2023/04/30 08:08:51;;;;;;;10.98;6.65;;;22.30;99.90;;;;;;4957934;28;20212;-77
2023/04/30 08:11:18;;;;;;;11.15;6.75;;;22.90;99.40;;;;;;4957312;28;20290;-76
2023/04/30 08:13:45;;;;;;;10.25;6.63;;;23.10;99.10;;;;;;4957305;28;20247;-77
2023/04/30 08:16:12;;;;;;;9.07;6.28;;;23.60;98.80;;;;;;4957349;28;20267;-77
2023/04/30 08:18:43;;;;;;;11.75;6.82;;;24.40;98.30;;;;;;4957379;28;20243;-77
2023/04/30 08:21:11;;;;;;;10.57;6.97;;;24.60;97.90;;;;;;4957398;28;20204;-77
2023/04/30 08:23:38;;;;;;;9.73;6.47;;;23.60;98.40;;;;;;4956843;28;20235;-75
2023/04/30 08:26:05;;;;;;;10.45;6.13;;;22.80;99.30;;;;;;4957421;28;20295;-77
2023/04/30 08:28:32;;;;;;;8.90;5.43;;;22.40;98.90;;;;;;4957002;28;20283;-81
2023/04/30 08:30:59;;;;;;;8.98;5.78;;;21.60;99.70;;;;;;4952529;28;20239;-77
2023/04/30 08:33:26;;;;;;;10.18;5.38;;;21.60;99.60;;;;;;4955728;29;20320;-77
2023/04/30 08:35:54;;;;;;;11.65;6.38;;;21.90;99.60;;;;;;4956076;28;20212;-86
2023/04/30 08:38:22;;;;;;;10.40;5.80;;;22.60;99.40;;;;;;4957412;28;20276;-81
2023/04/30 08:40:53;;;;;;;8.85;6.00;;;22.70;98.60;;;;;;4957213;28;20299;-81
2023/04/30 08:43:21;;;;;;;7.65;5.15;;;22.10;99.10;;;;;;4956654;28;20291;-77
2023/04/30 08:45:50;;;;;;;8.60;5.40;;;21.70;99.20;;;;;;4956278;28;20341;-75
2023/04/30 08:48:21;;;;;;;8.50;5.45;;;21.40;99.90;;;;;;4956792;28;20251;-75
2023/04/30 08:50:48;;;;;;;8.05;5.07;;;21.20;99.50;;;;;;4957029;28;20286;-76
2023/04/30 08:53:16;;;;;;;11.43;5.85;;;21.30;99.90;;;;;;4956646;28;20652;-78
2023/04/30 08:55:44;;;;;;;8.50;5.40;;;22.10;99.10;;;;;;4956361;29;20240;-76
2023/04/30 08:58:11;;;;;;;8.23;5.00;;;21.70;99.50;;;;;;4956988;28;20240;-75
2023/04/30 09:00:39;;;;;;;7.40;5.18;;;21.50;99.50;;;;;;4956460;29;20645;-74
2023/04/30 09:03:07;;;;;;;8.00;5.03;;;21.70;99.70;;;;;;4956705;28;20240;-75
2023/04/30 09:05:34;;;;;;;7.78;5.20;;;21.30;99.20;;;;;;4956352;28;20239;-74
2023/04/30 09:08:02;;;;;;;7.72;5.03;;;20.70;99.90;;;;;;4956804;28;20620;-76
2023/04/30 09:10:32;;;;;;;7.95;4.38;;;20.60;99.90;;;;;;4956623;28;20637;-75
2023/04/30 09:13:01;;;;;;;7.38;4.60;;;20.10;99.90;;;;;;4956307;28;20286;-75
2023/04/30 09:15:29;;;;;;;8.98;5.20;;;20.00;99.90;;;;;;4956536;28;20228;-74
2023/04/30 09:18:07;;;;;;;7.45;4.90;;;19.80;99.90;;;;;;4956347;28;20208;-75
2023/04/30 09:20:35;;;;;;;8.18;5.25;;;20.30;99.90;;;;;;4956235;28;20274;-76
2023/04/30 09:23:09;;;;;;;7.38;4.55;;;20.70;99.90;;;;;;4956314;28;20306;-74
2023/04/30 09:25:40;;;;;;;8.88;5.07;;;20.50;99.80;;;;;;4956239;28;20267;-74
2023/04/30 09:28:10;;;;;;;7.07;4.03;;;20.30;99.90;;;;;;4955902;28;20251;-76
2023/04/30 09:30:38;;;;;;;6.00;3.50;;;20.30;99.50;;;;;;4956099;29;20294;-74
2023/04/30 09:33:05;;;;;;;6.18;3.60;;;20.30;99.00;;;;;;4956065;28;20327;-74
2023/04/30 09:35:33;;;;;;;5.72;3.40;;;20.20;99.70;;;;;;4955959;28;20636;-75
2023/04/30 09:38:01;;;;;;;5.47;3.67;;;19.20;98.90;;;;;;4955813;28;20208;-74
2023/04/30 09:40:36;;;;;;;4.85;3.05;;;18.90;99.90;;;;;;4956488;28;20204;-74
2023/04/30 09:43:04;;;;;;;6.43;3.83;;;18.90;99.90;;;;;;4956070;28;20215;-75
2023/04/30 09:45:43;;;;;;;7.60;4.47;;;18.80;99.90;;;;;;4955872;28;20771;-74
2023/04/30 09:48:11;;;;;;;6.15;3.53;;;18.70;99.90;;;;;;4956168;28;20218;-74
2023/04/30 09:50:39;;;;;;;6.15;3.50;;;18.70;99.90;;;;;;4955881;28;20621;-74
2023/04/30 09:53:08;;;;;;;6.35;3.47;;;18.50;99.90;;;;;;4955701;28;20240;-74
2023/04/30 09:55:36;;;;;;;7.20;3.95;;;18.50;99.90;;;;;;4955804;28;20239;-75
2023/04/30 09:58:05;;;;;;;5.85;3.92;;;18.00;99.90;;;;;;4955731;28;20302;-75
2023/04/30 10:00:34;;;;;;;8.25;2.95;;;18.00;99.90;;;;;;4955792;28;20211;-74
2023/04/30 10:03:06;;;;;;;5.80;3.03;;;18.20;99.90;;;;;;4955638;28;20681;-73
2023/04/30 10:05:37;;;;;;;4.63;2.67;;;18.00;99.90;;;;;;4955517;28;20233;-75
2023/04/30 10:08:07;;;;;;;4.15;2.80;;;18.10;99.60;;;;;;4955521;28;20204;-75
2023/04/30 10:10:35;;;;;;;5.05;2.92;;;17.90;99.90;;;;;;4955613;28;20235;-74
2023/04/30 10:13:05;;;;;;;6.20;3.58;;;18.10;99.90;;;;;;4955502;28;20314;-74
2023/04/30 10:15:38;;;;;;;9.57;3.75;;;18.30;99.90;;;;;;4955321;28;20311;-75
2023/04/30 10:18:11;;;;;;;4.18;2.80;;;18.30;99.80;;;;;;4955350;28;20204;-76
2023/04/30 10:20:39;;;;;;;4.50;3.03;;;18.20;99.90;;;;;;4955610;28;20302;-75
2023/04/30 10:23:08;;;;;;;6.03;3.15;;;18.10;99.90;;;;;;4955337;28;20320;-74
2023/04/30 10:25:35;;;;;;;5.80;2.72;;;18.10;99.90;;;;;;4954681;28;20231;-74
2023/04/30 10:28:02;;;;;;;4.97;3.22;;;18.20;99.90;;;;;;4955157;28;20257;-74
2023/04/30 10:30:30;;;;;;;5.90;3.50;;;18.20;99.90;;;;;;4955595;29;20247;-74
2023/04/30 10:33:10;;;;;;;4.88;2.97;;;18.30;99.90;;;;;;4955238;28;20739;-74
2023/04/30 10:35:47;;;;;;;4.60;3.13;;;18.40;99.90;;;;;;4955012;28;20738;-74
2023/04/30 10:38:20;;;;;;;5.25;2.63;;;18.70;99.60;;;;;;4954912;28;20677;-74
2023/04/30 10:40:48;;;;;;;4.93;2.50;;;18.60;99.90;;;;;;4955191;28;20299;-74
2023/04/30 10:43:18;;;;;;;3.47;2.42;;;18.30;99.90;;;;;;4955496;28;20266;-74
2023/04/30 10:45:45;;;;;;;4.43;2.78;;;18.30;99.90;;;;;;4955027;28;20232;-74
2023/04/30 10:48:22;;;;;;;6.95;2.45;;;18.40;99.90;;;;;;4955096;28;20208;-74
2023/04/30 10:50:52;;;;;;;5.90;2.80;;;18.40;99.90;;;;;;4954952;28;20219;-74
2023/04/30 10:53:21;;;;;;;3.85;2.53;;;18.50;99.90;;;;;;4954975;28;20597;-74
2023/04/30 10:55:52;;;;;;;3.60;2.25;;;18.60;99.80;;;;;;4954975;28;20235;-74
2023/04/30 10:58:33;;;;;;;3.55;2.08;;;18.70;99.10;;;;;;4954896;29;20299;-74
2023/04/30 11:01:06;;;;;;;3.35;2.33;;;18.80;99.10;;;;;;4954962;28;20569;-75
2023/04/30 11:03:36;;;;;;;5.10;2.53;;;18.80;99.00;;;;;;4954862;28;20211;-74
2023/04/30 11:06:10;;;;;;;3.72;2.38;;;18.50;99.40;;;;;;4954717;28;20743;-75
2023/04/30 11:08:39;;;;;;;4.38;2.47;;;18.50;99.40;;;;;;4954989;28;20738;-75
2023/04/30 11:11:09;;;;;;;4.60;2.50;;;18.10;99.40;;;;;;4954890;28;20204;-73
2023/04/30 11:13:41;;;;;;;4.75;2.10;;;18.10;99.80;;;;;;4954545;28;20232;-74
2023/04/30 11:16:07;;;;;;;5.03;2.45;;;18.10;98.80;;;;;;4954705;28;20208;-75
2023/04/30 11:18:42;;;;;;;3.50;2.23;;;17.90;99.30;;;;;;4955031;28;20216;-74
2023/04/30 11:21:09;;;;;;;3.80;2.50;;;17.70;98.90;;;;;;4954465;28;20687;-74
2023/04/30 11:23:36;;;;;;;3.78;2.22;;;17.80;99.10;;;;;;4954756;28;20208;-75
2023/04/30 11:26:03;;;;;;;3.45;2.17;;;18.00;99.40;;;;;;4954234;28;20339;-73
2023/04/30 11:28:34;;;;;;;3.53;2.60;;;18.00;99.90;;;;;;4954254;28;20760;-75
2023/04/30 11:31:02;;;;;;;3.92;2.60;;;18.10;99.10;;;;;;4954740;28;20673;-75
2023/04/30 11:33:30;;;;;;;4.32;2.50;;;18.00;99.20;;;;;;4954606;28;20236;-74
2023/04/30 11:36:00;;;;;;;4.07;2.10;;;17.80;99.40;;;;;;4955012;28;20236;-76
2023/04/30 11:38:29;;;;;;;3.47;2.22;;;17.60;99.00;;;;;;4958506;28;20263;-76
2023/04/30 11:40:57;;;;;;;3.95;2.35;;;17.50;99.60;;;;;;4959429;28;20303;-75
2023/04/30 11:43:25;;;;;;;3.43;2.23;;;17.60;99.30;;;;;;4959558;28;20300;-75
2023/04/30 11:46:14;;;;;;;3.97;2.35;;;17.50;99.30;;;;;;4958729;28;20204;-75
2023/04/30 11:48:42;;;;;;;3.73;2.40;;;17.40;99.20;;;;;;4956905;28;20295;-75
2023/04/30 11:51:17;;;;;;;4.27;2.37;;;17.70;99.50;;;;;;4958930;28;20247;-75
2023/04/30 11:53:47;;;;;;;5.30;2.50;;;17.90;99.80;;;;;;4959314;28;20259;-74
2023/04/30 11:56:14;;;;;;;5.10;2.80;;;18.20;99.30;;;;;;4964098;28;20207;-75
2023/04/30 11:58:41;;;;;;;5.07;2.75;;;18.20;99.40;;;;;;4963102;28;20208;-75
2023/04/30 12:01:09;;;;;;;3.83;2.40;;;18.00;99.50;;;;;;4962828;28;20208;-75
2023/04/30 12:03:42;;;;;;;4.15;2.35;;;18.10;99.50;;;;;;4962702;28;20208;-75
2023/04/30 12:06:11;;;;;;;3.03;1.95;;;17.90;99.20;;;;;;4963068;28;20295;-74
2023/04/30 12:08:41;;;;;;;4.07;2.17;;;18.00;99.10;;;;;;4961620;28;20208;-75
2023/04/30 12:11:20;;;;;;;4.07;1.90;;;18.00;98.30;;;;;;4962006;28;20238;-74
2023/04/30 12:13:50;;;;;;;5.30;2.33;;;18.10;99.30;;;;;;4961320;28;20287;-75
2023/04/30 12:16:18;;;;;;;3.10;2.00;;;18.50;98.80;;;;;;4958626;28;20239;-75
2023/04/30 12:18:45;;;;;;;3.53;2.28;;;18.60;98.80;;;;;;4958661;28;20227;-75
2023/04/30 12:21:13;;;;;;;3.55;1.98;;;18.40;98.20;;;;;;4958508;28;20601;-75
2023/04/30 12:23:41;;;;;;;3.10;1.80;;;18.40;98.60;;;;;;4958189;28;20635;-75
2023/04/30 12:26:08;;;;;;;3.33;1.80;;;18.30;98.40;;;;;;4958608;28;20244;-76
2023/04/30 12:28:35;;;;;;;3.20;2.00;;;18.40;98.40;;;;;;4957906;28;20247;-75
2023/04/30 12:31:04;;;;;;;3.97;2.30;;;18.50;98.80;;;;;;4957752;28;20636;-75
2023/04/30 12:33:32;;;;;;;3.17;1.65;;;18.70;98.50;;;;;;4958379;28;20267;-75
2023/04/30 12:35:59;;;;;;;3.67;2.00;;;18.80;98.50;;;;;;4957983;28;20708;-76
2023/04/30 12:38:26;;;;;;;2.35;1.88;;;18.70;97.80;;;;;;4957907;28;20239;-74
2023/04/30 12:40:54;;;;;;;3.40;2.00;;;18.70;98.00;;;;;;4957387;28;20749;-75
2023/04/30 12:43:21;;;;;;;2.85;1.80;;;18.80;97.10;;;;;;4957013;28;20303;-76
2023/04/30 12:45:51;;;;;;;2.55;1.70;;;18.70;97.50;;;;;;4957015;29;20323;-75
2023/04/30 12:48:19;;;;;;;2.10;1.40;;;18.60;97.40;;;;;;4956339;28;20295;-75
2023/04/30 12:50:53;;;;;;;3.97;2.38;;;18.60;97.30;;;;;;4957590;29;20240;-75
2023/04/30 12:53:20;;;;;;;2.25;1.38;;;18.50;97.30;;;;;;4956904;28;20664;-74
2023/04/30 12:56:11;;;;;;;3.28;1.60;;;18.70;98.30;;;;;;4957396;28;20228;-75
2023/04/30 12:58:38;;;;;;;2.28;1.48;;;18.70;97.80;;;;;;4957147;28;20243;-75
2023/04/30 13:01:10;;;;;;;2.53;1.60;;;18.70;97.80;;;;;;4956797;28;20211;-74
2023/04/30 13:03:37;;;;;;;2.33;1.65;;;18.70;97.50;;;;;;4956753;28;20208;-73
2023/04/30 13:06:05;;;;;;;2.60;1.70;;;18.80;98.00;;;;;;4956977;28;20621;-76
2023/04/30 13:08:33;;;;;;;1.88;1.23;;;19.00;96.80;;;;;;4956595;28;20691;-73
2023/04/30 13:11:00;;;;;;;2.28;1.40;;;18.80;97.40;;;;;;4956431;28;20683;-73
2023/04/30 13:13:28;;;;;;;2.38;1.50;;;18.70;96.90;;;;;;4956726;28;20215;-73
2023/04/30 13:15:55;;;;;;;3.50;1.50;;;18.60;97.30;;;;;;4956439;28;20298;-76
2023/04/30 13:18:22;;;;;;;3.20;1.55;;;18.50;98.30;;;;;;4956375;28;20212;-75
2023/04/30 13:20:49;;;;;;;2.70;1.50;;;18.70;97.70;;;;;;4956453;28;20271;-73
2023/04/30 13:23:16;;;;;;;2.17;1.35;;;18.80;97.70;;;;;;4956450;28;20630;-74
2023/04/30 13:25:43;;;;;;;1.77;1.40;;;18.90;97.40;;;;;;4956491;29;20231;-75
2023/04/30 13:28:10;;;;;;;2.03;1.50;;;18.90;97.40;;;;;;4956412;28;20219;-74
2023/04/30 13:30:39;;;;;;;3.15;1.70;;;19.10;97.50;;;;;;4956039;28;20214;-75
2023/04/30 13:33:06;;;;;;;3.53;1.48;;;18.90;96.80;;;;;;4955932;28;20216;-75
2023/04/30 13:35:33;;;;;;;2.25;1.35;;;18.90;97.50;;;;;;4955780;28;20323;-75
2023/04/30 13:38:01;;;;;;;2.28;1.40;;;18.80;97.40;;;;;;4956057;29;20247;-74
2023/04/30 13:40:28;;;;;;;2.40;1.38;;;18.60;97.50;;;;;;4956167;28;20207;-75
2023/04/30 13:42:55;;;;;;;2.38;1.38;;;18.70;97.90;;;;;;4955911;28;20295;-75
2023/04/30 13:45:21;;;;;;;4.15;1.25;;;18.80;97.50;;;;;;4955814;28;20234;-75
2023/04/30 13:47:50;;;;;;;1.85;1.25;;;18.80;97.80;;;;;;4955868;28;20243;-75
2023/04/30 13:50:17;;;;;;;3.03;1.33;;;18.80;97.20;;;;;;4955570;28;20262;-75
2023/04/30 13:52:43;;;;;;;2.78;1.00;;;18.70;96.20;;;;;;4955911;28;20291;-75
2023/04/30 13:55:10;;;;;;;1.92;1.10;;;18.70;96.30;;;;;;4955699;28;20278;-74
2023/04/30 13:57:38;;;;;;;2.60;1.30;;;19.00;96.40;;;;;;4955520;28;20208;-75
2023/04/30 14:00:07;;;;;;;1.92;1.30;;;19.10;96.80;;;;;;4954660;28;20204;-75
2023/04/30 14:02:34;;;;;;;3.97;1.60;;;19.30;97.20;;;;;;4955466;28;20665;-74
2023/04/30 14:05:03;;;;;;;2.30;1.42;;;19.20;96.60;;;;;;4955692;28;20236;-74
2023/04/30 14:07:31;;;;;;;3.15;1.48;;;19.20;97.40;;;;;;4955253;28;20723;-75
2023/04/30 14:09:57;;;;;;;1.95;1.00;;;19.30;96.40;;;;;;4955037;28;20657;-75
2023/04/30 14:12:24;;;;;;;2.03;1.10;;;19.30;96.50;;;;;;4955369;28;20258;-74
2023/04/30 14:14:51;;;;;;;3.92;1.63;;;19.20;96.20;;;;;;4955201;28;20275;-75
2023/04/30 14:17:19;;;;;;;4.38;1.50;;;19.40;96.70;;;;;;4955227;28;20215;-74
2023/04/30 14:19:46;;;;;;;3.25;1.63;;;19.40;96.40;;;;;;4955415;29;20208;-75
2023/04/30 14:22:15;;;;;;;1.83;1.00;;;19.40;96.00;;;;;;4955469;28;20234;-75
2023/04/30 14:24:42;;;;;;;1.50;1.02;;;19.30;96.90;;;;;;4955252;28;20315;-75
2023/04/30 14:27:09;;;;;;;2.42;1.48;;;19.30;96.60;;;;;;4955083;28;20220;-75
2023/04/30 14:29:36;;;;;;;3.13;1.30;;;19.20;95.80;;;;;;4955150;28;20291;-75
2023/04/30 14:32:06;;;;;;;3.55;1.00;;;19.50;95.80;;;;;;4954814;28;20308;-74
2023/04/30 14:34:32;;;;;;;2.60;1.52;;;19.80;96.20;;;;;;4955323;28;20334;-76
2023/04/30 14:37:00;;;;;;;3.08;1.50;;;19.90;96.10;;;;;;4955308;28;20622;-76
2023/04/30 14:39:29;;;;;;;2.03;1.20;;;19.70;96.40;;;;;;4955379;28;20212;-74
2023/04/30 14:41:56;;;;;;;1.20;1.00;;;19.70;96.50;;;;;;4955275;29;20295;-75
2023/04/30 14:44:24;;;;;;;1.83;1.00;;;19.70;96.50;;;;;;4954588;29;20796;-76
2023/04/30 14:46:51;;;;;;;2.17;1.00;;;19.80;96.00;;;;;;4955299;28;20219;-74
2023/04/30 14:49:18;;;;;;;1.85;1.10;;;19.80;96.40;;;;;;4954940;29;20748;-76
2023/04/30 14:51:45;;;;;;;1.30;0.90;;;19.60;96.30;;;;;;4955033;29;20246;-75
2023/04/30 14:54:12;;;;;;;1.60;1.20;;;19.50;96.00;;;;;;4954485;28;20286;-74
2023/04/30 14:56:41;;;;;;;3.35;1.20;;;19.50;96.10;;;;;;4954985;28;20208;-74
2023/04/30 14:59:08;;;;;;;1.80;1.10;;;19.60;95.80;;;;;;4954452;28;20243;-74
2023/04/30 15:01:35;;;;;;;1.85;1.25;;;19.80;95.60;;;;;;4954603;28;20303;-75
2023/04/30 15:04:02;;;;;;;1.25;1.10;;;19.80;95.90;;;;;;4954861;28;20266;-75
2023/04/30 15:06:29;;;;;;;2.47;1.23;;;19.90;95.50;;;;;;4954918;29;20204;-75
2023/04/30 15:08:56;;;;;;;1.23;0.80;;;20.00;95.60;;;;;;4954791;28;20215;-75
2023/04/30 15:11:24;;;;;;;2.50;1.13;;;19.70;95.20;;;;;;4955217;28;20278;-75
2023/04/30 15:13:54;;;;;;;1.60;1.10;;;19.50;96.00;;;;;;4958359;28;20239;-74
2023/04/30 15:16:21;;;;;;;1.33;1.10;;;19.50;95.80;;;;;;4958888;28;20207;-75
2023/04/30 15:18:48;;;;;;;1.33;0.93;;;19.30;95.60;;;;;;4958774;28;20242;-75
2023/04/30 15:21:15;;;;;;;2.33;1.15;;;19.40;95.70;;;;;;4958771;29;20660;-75
2023/04/30 15:23:42;;;;;;;1.10;0.90;;;19.30;95.70;;;;;;4958334;28;20238;-74
2023/04/30 15:26:09;;;;;;;1.33;1.05;;;19.60;96.00;;;;;;4958141;28;20254;-75
2023/04/30 15:28:36;;;;;;;2.58;1.20;;;20.10;95.50;;;;;;4958270;29;20247;-75
2023/04/30 15:31:05;;;;;;;1.90;1.00;;;20.30;95.60;;;;;;4958607;28;20291;-75
2023/04/30 15:33:38;;;;;;;1.42;1.20;;;20.50;95.90;;;;;;4958079;28;20214;-75
2023/04/30 15:36:05;;;;;;;1.52;0.98;;;20.40;95.10;;;;;;4958452;28;20592;-75
2023/04/30 15:38:32;;;;;;;1.20;0.70;;;20.20;94.90;;;;;;4958198;28;20208;-75
2023/04/30 15:40:59;;;;;;;1.40;1.00;;;20.10;95.30;;;;;;4958713;28;20235;-75
2023/04/30 15:43:26;;;;;;;1.60;1.00;;;20.00;95.40;;;;;;4958408;28;20273;-75
2023/04/30 15:45:53;;;;;;;1.80;1.00;;;20.10;95.20;;;;;;4958277;28;20801;-75
2023/04/30 15:48:21;;;;;;;1.80;0.88;;;20.00;95.50;;;;;;4958158;29;20498;-74
2023/04/30 15:50:49;;;;;;;1.10;0.82;;;19.80;95.70;;;;;;4957897;28;20303;-75
2023/04/30 15:53:16;;;;;;;1.17;0.88;;;19.40;95.60;;;;;;4958087;28;20216;-77
2023/04/30 15:55:43;;;;;;;1.17;0.70;;;19.40;96.20;;;;;;4957959;28;20431;-74
2023/04/30 15:58:10;;;;;;;1.40;0.80;;;19.50;95.90;;;;;;4958364;28;20291;-74
2023/04/30 16:00:37;;;;;;;0.70;0.63;;;19.60;95.60;;;;;;4958306;28;20212;-74
2023/04/30 16:03:04;;;;;;;1.00;0.80;;;19.60;96.00;;;;;;4958211;28;20208;-74
2023/04/30 16:05:37;;;;;;;1.20;0.90;;;19.50;96.10;;;;;;4957735;28;20318;-74
2023/04/30 16:08:04;;;;;;;1.77;0.98;;;19.50;95.80;;;;;;4957803;28;20219;-74
2023/04/30 16:10:31;;;;;;;1.50;1.10;;;19.60;95.20;;;;;;4957812;28;20243;-75
2023/04/30 16:12:58;;;;;;;1.67;0.98;;;19.50;95.10;;;;;;4958019;28;20219;-74
2023/04/30 16:15:26;;;;;;;1.65;1.10;;;19.60;95.40;;;;;;4957390;28;20286;-74
2023/04/30 16:17:53;;;;;;;1.35;0.93;;;19.70;95.50;;;;;;4957335;28;20564;-75
2023/04/30 16:20:20;;;;;;;1.67;0.82;;;19.80;95.70;;;;;;4957699;28;20247;-75
2023/04/30 16:22:49;;;;;;;1.50;0.98;;;19.90;95.80;;;;;;4957049;28;20216;-75
2023/04/30 16:25:16;;;;;;;1.10;0.70;;;19.90;95.70;;;;;;4957112;28;20319;-75
2023/04/30 16:27:44;;;;;;;1.20;0.90;;;19.90;95.70;;;;;;4957299;28;20307;-75
2023/04/30 16:30:11;;;;;;;1.40;0.80;;;19.90;95.70;;;;;;4957416;28;20212;-75
2023/04/30 16:32:38;;;;;;;1.25;0.80;;;19.70;95.80;;;;;;4957292;28;20677;-75
2023/04/30 16:35:06;;;;;;;1.35;0.98;;;19.60;96.00;;;;;;4957420;28;20316;-75
2023/04/30 16:37:33;;;;;;;1.55;0.70;;;19.50;96.30;;;;;;4957790;28;20211;-75
2023/04/30 16:40:01;;;;;;;0.82;0.73;;;19.50;96.00;;;;;;4957394;28;20243;-74
2023/04/30 16:42:29;;;;;;;0.98;0.88;;;19.30;96.90;;;;;;4957139;28;20224;-75
2023/04/30 16:44:56;;;;;;;3.25;0.80;;;19.30;96.40;;;;;;4957249;28;20593;-75
2023/04/30 16:47:23;;;;;;;0.80;0.60;;;19.40;96.30;;;;;;4957372;28;20263;-75
2023/04/30 16:49:50;;;;;;;2.85;0.85;;;19.20;96.60;;;;;;4957289;28;20299;-75
2023/04/30 16:52:17;;;;;;;2.40;0.85;;;19.10;96.70;;;;;;4954693;28;20291;-75
2023/04/30 16:54:44;;;;;;;1.85;0.80;;;19.10;96.90;;;;;;4955960;29;20298;-75
2023/04/30 16:57:12;;;;;;;1.08;0.70;;;19.10;96.80;;;;;;4955465;29;20204;-76
2023/04/30 16:59:39;;;;;;;0.90;0.73;;;19.00;96.70;;;;;;4955850;28;20227;-76
2023/04/30 17:02:07;;;;;;;1.67;0.82;;;18.90;96.70;;;;;;4956279;29;20295;-73
2023/04/30 17:04:34;;;;;;;0.93;0.70;;;18.80;96.50;;;;;;4956400;29;20266;-73
2023/04/30 17:07:02;;;;;;;1.27;0.70;;;18.90;96.80;;;;;;4956555;29;20732;-73
2023/04/30 17:09:30;;;;;;;1.38;0.88;;;19.00;96.70;;;;;;4956896;28;20212;-74
2023/04/30 17:11:57;;;;;;;0.93;0.63;;;19.10;96.30;;;;;;4956315;29;20235;-74
2023/04/30 17:14:25;;;;;;;2.92;0.88;;;19.00;96.30;;;;;;4956202;29;20232;-73
2023/04/30 17:16:52;;;;;;;2.13;0.80;;;18.90;96.60;;;;;;4956090;29;20236;-74
2023/04/30 17:19:19;;;;;;;0.93;0.60;;;19.00;97.10;;;;;;4956364;29;20224;-74
2023/04/30 17:23:53;;;;;;;1.02;0.77;;;18.90;96.40;;;;;;5113063;27;20547;-74
2023/04/30 17:26:20;;;;;;;0.73;0.63;;;18.90;97.10;;;;;;5111719;28;20198;-76
2023/04/30 17:28:47;;;;;;;1.65;0.90;;;18.80;96.80;;;;;;5111615;28;20252;-74
2023/04/30 17:31:14;;;;;;;1.10;0.70;;;18.70;97.20;;;;;;5105822;28;20210;-76
2023/04/30 17:33:41;;;;;;;2.53;1.00;;;18.60;97.20;;;;;;5091819;28;20239;-74
2023/04/30 17:36:08;;;;;;;2.95;1.90;;;18.60;97.00;;;;;;5091159;28;20202;-74
2023/04/30 17:38:35;;;;;;;2.28;1.30;;;18.60;97.30;;;;;;5090177;28;20210;-73
2023/04/30 17:41:04;;;;;;;1.02;0.65;;;18.50;97.50;;;;;;5089880;28;20296;-74
2023/04/30 17:43:31;;;;;;;0.90;0.80;;;18.60;97.40;;;;;;5089476;28;20246;-74
2023/04/30 17:45:57;;;;;;;2.08;0.50;;;18.50;97.80;;;;;;5094651;28;20221;-74
2023/04/30 17:48:24;;;;;;;1.17;0.55;;;18.50;97.40;;;;;;5110690;28;20233;-73
2023/04/30 17:50:51;;;;;;;0.80;0.60;;;18.30;97.90;;;;;;5091302;28;20230;-73
2023/04/30 17:53:18;;;;;;;1.13;0.70;;;18.50;98.10;;;;;;5089947;28;20234;-76
2023/04/30 17:55:45;;;;;;;0.90;0.70;;;18.50;97.50;;;;;;5089570;28;20257;-74
2023/04/30 17:58:13;;;;;;;2.30;0.73;;;18.30;97.80;;;;;;5089671;28;20294;-74
2023/04/30 18:00:42;;;;;;;7.07;1.98;;;18.20;98.40;;;;;;5090126;28;20230;-73
2023/04/30 18:03:09;;;;;;;1.80;0.70;;;18.20;98.40;;;;;;5089785;28;20241;-73
2023/04/30 18:05:38;;;;;;;1.48;0.73;;;18.10;98.40;;;;;;5086309;28;20318;-73
2023/04/30 18:08:05;;;;;;;1.23;0.70;;;18.10;99.10;;;;;;5108190;28;20206;-73
2023/04/30 18:10:32;;;;;;;1.38;0.88;;;18.00;99.00;;;;;;5108733;28;20626;-80
2023/04/30 18:12:59;;;;;;;1.25;0.88;;;18.00;99.20;;;;;;5108659;28;20633;-77
2023/04/30 18:15:28;;;;;;;2.17;1.08;;;17.90;99.20;;;;;;5106232;28;20225;-75
2023/04/30 18:17:55;;;;;;;1.95;1.10;;;18.00;99.60;;;;;;5108494;28;20210;-75
2023/04/30 18:20:22;;;;;;;1.45;0.80;;;18.00;99.90;;;;;;5107878;28;20664;-75
2023/04/30 18:22:49;;;;;;;3.13;0.90;;;18.10;99.70;;;;;;5107883;28;20288;-75
2023/04/30 18:25:18;;;;;;;1.65;1.00;;;18.10;99.70;;;;;;5105847;28;20237;-75
2023/04/30 18:27:45;;;;;;;0.88;0.75;;;18.10;99.90;;;;;;5108245;28;20209;-75
2023/04/30 18:30:12;;;;;;;1.55;0.88;;;18.00;99.90;;;;;;5108411;28;20237;-79
2023/04/30 18:32:42;;;;;;;0.95;0.75;;;18.00;99.90;;;;;;5108147;28;20202;-76
2023/04/30 18:35:10;;;;;;;1.23;0.80;;;17.90;99.90;;;;;;5094558;28;20230;-76
2023/04/30 18:37:37;;;;;;;1.45;0.80;;;17.90;99.90;;;;;;5094952;28;20211;-77
2023/04/30 18:40:05;;;;;;;1.00;0.80;;;17.90;99.90;;;;;;5095023;28;20233;-76
2023/04/30 18:42:32;;;;;;;1.85;1.20;;;17.80;99.90;;;;;;5094753;28;20591;-76
2023/04/30 18:44:59;;;;;;;0.80;0.68;;;17.80;99.90;;;;;;5094557;28;20219;-73
2023/04/30 18:47:26;;;;;;;1.10;0.80;;;17.70;99.90;;;;;;5095095;28;20684;-73
2023/04/30 18:49:55;;;;;;;1.37;0.80;;;17.50;99.90;;;;;;5094061;28;20203;-74
2023/04/30 18:52:22;;;;;;;1.23;0.80;;;17.40;99.90;;;;;;5094116;28;20232;-76
2023/04/30 18:54:49;;;;;;;1.00;0.80;;;17.40;99.90;;;;;;5094832;28;20615;-74
2023/04/30 18:57:17;;;;;;;0.80;0.80;;;17.30;99.90;;;;;;5094568;28;20665;-76
2023/04/30 18:59:44;;;;;;;1.13;0.80;;;17.10;99.90;;;;;;5094101;28;20206;-75
2023/04/30 19:02:11;;;;;;;1.67;1.07;;;17.00;99.90;;;;;;5091414;28;20318;-73
2023/04/30 19:04:38;;;;;;;1.57;0.70;;;17.00;99.90;;;;;;5080104;28;20257;-75
2023/04/30 19:07:06;;;;;;;1.73;0.80;;;16.90;99.90;;;;;;5079579;28;20202;-74
2023/04/30 19:09:35;;;;;;;1.37;1.20;;;16.80;99.90;;;;;;5075471;28;20235;-74
2023/04/30 19:12:03;;;;;;;2.43;0.70;;;16.70;99.90;;;;;;5080261;28;20202;-73
2023/04/30 19:14:31;;;;;;;1.43;0.83;;;16.70;99.90;;;;;;5084158;28;20234;-71
2023/04/30 19:16:59;;;;;;;1.13;0.80;;;16.70;99.90;;;;;;5085657;28;20294;-74
2023/04/30 19:19:26;;;;;;;1.90;0.90;;;16.70;99.90;;;;;;5084523;28;20710;-73
2023/04/30 19:21:53;;;;;;;1.77;1.00;;;16.70;99.90;;;;;;5078820;28;20213;-74
2023/04/30 19:24:22;;;;;;;2.93;0.80;;;16.70;99.90;;;;;;5091841;28;20401;-73
2023/04/30 19:26:50;;;;;;;1.53;0.87;;;16.60;99.90;;;;;;5091885;28;20194;-73
2023/04/30 19:29:17;;;;;;;0.83;0.70;;;16.60;99.90;;;;;;5075114;28;20650;-75
2023/04/30 19:31:44;;;;;;;3.57;0.83;;;16.60;99.90;;;;;;5082812;28;20557;-72
2023/04/30 19:34:12;;;;;;;1.63;0.90;;;16.50;99.90;;;;;;5086542;28;20234;-73
2023/04/30 19:36:39;;;;;;;2.10;1.00;;;16.40;99.90;;;;;;5076597;28;20304;-72
2023/04/30 19:39:10;;;;;;;1.30;0.90;;;16.40;99.90;;;;;;5088617;28;20239;-72
2023/04/30 19:41:38;;;;;;;1.07;0.80;;;16.30;99.90;;;;;;5089332;28;20264;-72
2023/04/30 19:44:06;;;;;;;1.17;0.70;;;16.30;99.90;;;;;;5083574;28;20246;-72
2023/04/30 19:46:33;;;;;;;1.47;1.07;;;16.30;99.90;;;;;;5081721;28;20198;-72
2023/04/30 19:49:00;;;;;;;3.80;1.30;;;16.20;99.90;;;;;;5086207;28;20723;-72
2023/04/30 19:51:27;;;;;;;1.87;1.20;;;16.20;99.90;;;;;;5083691;28;20654;-72
2023/04/30 19:53:54;;;;;;;3.03;1.33;;;16.20;99.90;;;;;;5078707;28;20230;-72
2023/04/30 19:56:22;;;;;;;3.20;1.33;;;16.20;99.90;;;;;;5082940;28;20260;-72
2023/04/30 19:58:50;;;;;;;2.23;1.50;;;16.20;99.90;;;;;;5081866;28;20712;-72
2023/04/30 20:01:17;;;;;;;2.27;1.33;;;16.20;99.90;;;;;;5091811;28;20531;-72
2023/04/30 20:03:44;;;;;;;1.73;1.40;;;16.30;99.90;;;;;;5081670;28;20269;-72
2023/04/30 20:06:11;;;;;;;2.70;1.50;;;16.30;99.90;;;;;;5091586;28;20557;-72
2023/04/30 20:08:38;;;;;;;2.43;1.40;;;16.30;99.90;;;;;;5079036;28;20252;-72
2023/04/30 20:11:05;;;;;;;3.20;1.57;;;16.40;99.90;;;;;;5089201;28;20854;-73
2023/04/30 20:13:32;;;;;;;2.00;1.40;;;16.30;99.90;;;;;;5086303;28;20245;-72
2023/04/30 20:16:01;;;;;;;3.23;1.40;;;16.40;99.90;;;;;;5087233;28;20231;-72
2023/04/30 20:18:28;;;;;;;1.27;1.00;;;16.30;99.90;;;;;;5080399;28;20196;-72